createdAt,value
2023-05-11T00:01:50.881Z,46.05
2023-05-11T00:04:38.464Z,52.10
2023-05-11T00:07:26.058Z,46.22
2023-05-11T00:10:15.192Z,50.08
2023-05-11T00:13:02.398Z,48.38
2023-05-11T00:15:49.963Z,42.60
2023-05-11T00:18:37.698Z,42.22
2023-05-11T00:21:25.002Z,43.85
2023-05-11T00:24:12.651Z,42.88
2023-05-11T00:27:01.333Z,43.60
2023-05-11T00:29:48.795Z,40.53
2023-05-11T00:32:39.725Z,42.58
2023-05-11T00:35:27.374Z,43.50
2023-05-11T00:38:14.788Z,44.30
2023-05-11T00:41:02.484Z,48.53
2023-05-11T00:43:55.274Z,53.55
2023-05-11T00:46:43.224Z,48.17
2023-05-11T00:49:31.673Z,52.92
2023-05-11T00:52:19.429Z,50.72
2023-05-11T00:55:07.608Z,57.97
2023-05-11T00:57:54.962Z,55.72
2023-05-11T01:00:44.576Z,56.90
2023-05-11T01:03:32.340Z,54.78
2023-05-11T01:06:27.080Z,48.70
2023-05-11T01:09:25.424Z,55.35
2023-05-11T01:12:19.678Z,57.70
2023-05-11T01:15:11.124Z,53.72
2023-05-11T01:18:11.940Z,48.47
2023-05-11T01:21:04.959Z,52.58
2023-05-11T01:24:32.100Z,53.00
2023-05-11T01:28:04.429Z,50.95
2023-05-11T01:30:57.873Z,50.38
2023-05-11T01:33:54.110Z,46.63
2023-05-11T01:36:50.051Z,50.17
2023-05-11T01:39:48.947Z,47.95
2023-05-11T01:42:44.684Z,47.83
2023-05-11T01:45:39.366Z,39.15
2023-05-11T01:48:31.945Z,35.83
2023-05-11T01:51:38.262Z,38.80
2023-05-11T01:54:26.129Z,39.72
2023-05-11T01:57:15.426Z,35.97
2023-05-11T02:00:03.879Z,44.38
2023-05-11T02:02:55.060Z,40.28
2023-05-11T02:05:45.322Z,39.10
2023-05-11T02:08:33.921Z,39.63
2023-05-11T02:11:24.214Z,41.85
2023-05-11T02:14:12.372Z,42.17
2023-05-11T02:17:01.048Z,40.33
2023-05-11T02:19:49.583Z,38.05
2023-05-11T02:22:39.758Z,37.03
2023-05-11T02:25:28.430Z,40.00
2023-05-11T02:28:15.983Z,35.67
2023-05-11T02:31:10.173Z,36.33
2023-05-11T02:34:04.469Z,31.67
2023-05-11T02:36:54.584Z,28.92
2023-05-11T02:39:46.749Z,25.33
2023-05-11T02:42:38.523Z,27.05
2023-05-11T02:45:28.790Z,26.92
2023-05-11T02:48:22.132Z,29.58
2023-05-11T02:51:12.647Z,26.83
2023-05-11T02:54:02.214Z,26.00
2023-05-11T02:56:51.770Z,24.20
2023-05-11T02:59:39.214Z,26.77
2023-05-11T03:02:26.676Z,26.38
2023-05-11T03:05:14.244Z,23.73
2023-05-11T03:08:02.273Z,26.55
2023-05-11T03:10:53.213Z,22.77
2023-05-11T03:13:44.565Z,25.20
2023-05-11T03:16:33.569Z,24.27
2023-05-11T03:19:22.029Z,22.50
2023-05-11T03:22:10.486Z,23.98
2023-05-11T03:24:58.644Z,22.23
2023-05-11T03:27:47.360Z,18.00
2023-05-11T03:30:40.745Z,21.73
2023-05-11T03:33:28.227Z,20.73
2023-05-11T03:36:16.476Z,20.20
2023-05-11T03:39:07.221Z,17.23
2023-05-11T03:41:56.830Z,20.90
2023-05-11T03:44:48.034Z,19.10
2023-05-11T03:47:40.832Z,18.90
2023-05-11T03:50:28.865Z,18.75
2023-05-11T03:53:16.573Z,17.08
2023-05-11T03:56:07.336Z,20.67
2023-05-11T03:58:55.070Z,18.08
2023-05-11T04:01:43.979Z,20.08
2023-05-11T04:04:35.446Z,16.45
2023-05-11T04:07:22.919Z,18.48
2023-05-11T04:10:10.885Z,19.60
2023-05-11T04:13:00.974Z,18.58
2023-05-11T04:15:56.049Z,18.83
2023-05-11T04:18:43.937Z,18.88
2023-05-11T04:21:37.355Z,16.42
2023-05-11T04:24:24.663Z,17.80
2023-05-11T04:27:12.910Z,15.90
2023-05-11T04:30:00.447Z,18.35
2023-05-11T04:32:48.005Z,17.88
2023-05-11T04:35:39.346Z,16.67
2023-05-11T04:38:31.032Z,17.70
2023-05-11T04:41:18.631Z,19.45
2023-05-11T04:44:05.980Z,17.58
2023-05-11T04:46:59.209Z,16.33
2023-05-11T04:49:46.405Z,17.63
2023-05-11T04:52:33.489Z,16.08
2023-05-11T04:55:22.698Z,18.10
2023-05-11T04:58:10.925Z,19.77
2023-05-11T05:01:00.884Z,18.25
2023-05-11T05:03:51.585Z,15.43
2023-05-11T05:06:39.219Z,14.93
2023-05-11T05:09:29.183Z,18.88
2023-05-11T05:12:18.496Z,17.50
2023-05-11T05:15:08.606Z,19.33
2023-05-11T05:17:55.904Z,18.55
2023-05-11T05:20:44.382Z,15.27
2023-05-11T05:23:32.026Z,19.90
2023-05-11T05:26:34.245Z,16.50
2023-05-11T05:29:23.192Z,16.08
2023-05-11T05:32:10.554Z,18.55
2023-05-11T05:34:58.046Z,19.58
2023-05-11T05:37:48.542Z,17.75
2023-05-11T05:40:39.136Z,17.10
2023-05-11T05:43:26.518Z,16.27
2023-05-11T05:46:17.980Z,15.35
2023-05-11T05:49:07.781Z,15.75
2023-05-11T05:51:55.114Z,15.48
2023-05-11T05:54:42.359Z,14.75
2023-05-11T05:57:30.776Z,12.18
2023-05-11T06:00:18.835Z,12.45
2023-05-11T06:03:08.416Z,14.68
2023-05-11T06:05:56.041Z,14.20
2023-05-11T06:08:46.398Z,13.00
2023-05-11T06:11:33.780Z,10.00
2023-05-11T06:14:24.383Z,11.50
2023-05-11T06:17:13.954Z,11.48
2023-05-11T06:20:06.985Z,6.93
2023-05-11T06:22:54.513Z,9.77
2023-05-11T06:25:42.555Z,8.18
2023-05-11T06:28:30.206Z,10.65
2023-05-11T06:31:19.109Z,8.68
2023-05-11T06:34:09.103Z,10.75
2023-05-11T06:37:00.468Z,11.77
2023-05-11T06:39:48.035Z,8.75
2023-05-11T06:42:37.997Z,9.43
2023-05-11T06:45:26.699Z,8.10
2023-05-11T06:48:14.494Z,9.27
2023-05-11T06:51:02.240Z,10.15
2023-05-11T06:53:51.160Z,10.52
2023-05-11T06:56:39.560Z,9.57
2023-05-11T06:59:27.336Z,11.38
2023-05-11T07:02:18.484Z,9.32
2023-05-11T07:05:06.383Z,12.45
2023-05-11T07:07:54.012Z,8.95
2023-05-11T07:10:42.869Z,10.40
2023-05-11T07:13:30.953Z,8.65
2023-05-11T07:16:18.340Z,9.88
2023-05-11T07:19:05.958Z,9.75
2023-05-11T07:21:54.729Z,9.10
2023-05-11T07:24:42.376Z,8.93
2023-05-11T07:27:31.752Z,9.10
2023-05-11T07:30:19.897Z,9.23
2023-05-11T07:33:07.870Z,10.88
2023-05-11T07:35:55.845Z,13.40
2023-05-11T07:38:45.581Z,10.35
2023-05-11T07:41:44.991Z,9.30
2023-05-11T07:44:34.029Z,11.88
2023-05-11T07:47:21.805Z,12.77
2023-05-11T07:50:13.359Z,12.82
2023-05-11T07:53:04.237Z,10.88
2023-05-11T07:55:52.120Z,10.85
2023-05-11T07:58:40.226Z,10.05
2023-05-11T08:01:29.806Z,13.30
2023-05-11T08:04:18.377Z,15.00
2023-05-11T08:07:09.369Z,11.20
2023-05-11T08:09:56.834Z,10.90
2023-05-11T08:12:52.936Z,10.68
2023-05-11T08:15:40.353Z,9.10
2023-05-11T08:18:31.934Z,8.80
2023-05-11T08:21:21.943Z,7.88
2023-05-11T08:24:11.773Z,10.40
2023-05-11T08:27:00.213Z,6.35
2023-05-11T08:29:51.996Z,6.15
2023-05-11T08:35:34.269Z,6.10
2023-05-11T08:38:22.030Z,6.68
2023-05-11T08:41:12.521Z,7.78
2023-05-11T08:44:00.780Z,8.43
2023-05-11T08:47:08.588Z,8.75
2023-05-11T08:50:04.781Z,7.20
2023-05-11T08:52:54.450Z,7.40
2023-05-11T08:55:44.759Z,8.80
2023-05-11T08:58:37.530Z,9.77
2023-05-11T09:01:29.000Z,7.55
2023-05-11T09:04:19.718Z,8.63
2023-05-11T09:07:15.020Z,7.80
2023-05-11T09:10:08.833Z,7.00
2023-05-11T09:12:56.831Z,7.68
2023-05-11T09:15:45.404Z,9.20
2023-05-11T09:18:37.543Z,8.57
2023-05-11T09:21:45.912Z,10.02
2023-05-11T09:24:33.498Z,12.15
2023-05-11T09:27:26.947Z,10.57
2023-05-11T09:30:22.036Z,10.57
2023-05-11T09:33:21.952Z,9.80
2023-05-11T09:36:25.843Z,9.13
2023-05-11T09:42:16.881Z,5.95
2023-05-11T09:45:08.456Z,9.48
2023-05-11T09:47:56.300Z,11.18
2023-05-11T09:50:45.642Z,8.63
2023-05-11T09:53:38.722Z,10.15
2023-05-11T09:56:47.400Z,11.00
2023-05-11T09:59:48.089Z,13.68
2023-05-11T10:02:56.348Z,13.20
2023-05-11T10:05:57.601Z,13.05
2023-05-11T10:08:48.321Z,12.57
2023-05-11T10:11:48.760Z,13.90
2023-05-11T10:14:38.759Z,13.10
2023-05-11T10:17:29.214Z,16.30
2023-05-11T10:20:19.180Z,14.45
2023-05-11T10:23:15.310Z,13.90
2023-05-11T10:26:10.617Z,16.25
2023-05-11T10:28:59.497Z,17.48
2023-05-11T10:31:54.265Z,16.00
2023-05-11T10:34:51.455Z,16.63
2023-05-11T10:37:47.334Z,16.80
2023-05-11T10:40:44.205Z,15.48
2023-05-11T10:43:55.438Z,15.55
2023-05-11T10:47:03.379Z,16.48
2023-05-11T10:50:43.283Z,15.73
2023-05-11T10:53:57.523Z,14.07
2023-05-11T10:57:40.385Z,14.50
2023-05-11T11:01:14.859Z,15.43
2023-05-11T11:04:05.712Z,14.70
2023-05-11T11:07:06.053Z,13.75
2023-05-11T11:10:07.693Z,11.30
2023-05-11T11:13:06.821Z,11.25
2023-05-11T11:16:15.621Z,12.38
2023-05-11T11:19:37.956Z,10.88
2023-05-11T11:22:52.623Z,8.90
2023-05-11T11:25:58.794Z,8.95
2023-05-11T11:29:20.887Z,8.27
2023-05-11T11:32:35.528Z,11.65
2023-05-11T11:35:45.969Z,10.05
2023-05-11T11:41:30.623Z,11.15
2023-05-11T11:44:23.592Z,12.57
2023-05-11T11:47:12.175Z,12.05
2023-05-11T11:50:13.724Z,11.20
2023-05-11T11:53:01.071Z,10.95
2023-05-11T11:55:50.465Z,9.57
2023-05-11T11:59:01.579Z,9.43
2023-05-11T12:01:52.038Z,11.30
2023-05-11T12:04:51.253Z,8.20
2023-05-11T12:07:42.302Z,10.00
2023-05-11T12:10:29.825Z,10.13
2023-05-11T12:13:21.437Z,10.10
2023-05-11T12:16:18.865Z,9.40
2023-05-11T12:19:24.826Z,10.23
2023-05-11T12:22:44.906Z,12.43
2023-05-11T12:25:32.324Z,9.38
2023-05-11T12:28:19.933Z,12.88
2023-05-11T12:31:08.273Z,13.25
2023-05-11T12:34:18.339Z,13.77
2023-05-11T12:37:27.122Z,11.48
2023-05-11T12:41:07.268Z,12.80
2023-05-11T12:43:46.522Z,11.50
2023-05-11T12:46:33.903Z,10.40
2023-05-11T12:49:26.622Z,11.43
2023-05-11T12:52:14.356Z,10.82
2023-05-11T12:55:02.194Z,5.57
2023-05-11T12:57:50.680Z,6.15
2023-05-11T13:00:38.056Z,6.60
2023-05-11T13:03:38.109Z,7.25
2023-05-11T13:07:02.220Z,7.50
2023-05-11T13:10:19.073Z,7.85
2023-05-11T13:13:08.815Z,7.65
2023-05-11T13:15:56.089Z,9.90
2023-05-11T13:18:56.826Z,9.50
2023-05-11T13:21:46.696Z,7.88
2023-05-11T13:24:37.133Z,9.20
2023-05-11T13:27:24.516Z,7.55
2023-05-11T13:30:15.074Z,10.85
2023-05-11T13:33:03.600Z,7.03
2023-05-11T13:35:50.838Z,7.68
2023-05-11T13:38:39.521Z,7.47
2023-05-11T13:41:29.081Z,5.57
2023-05-11T13:44:16.481Z,7.82
2023-05-11T13:47:04.013Z,7.07
2023-05-11T13:49:51.441Z,6.53
2023-05-11T13:52:40.303Z,7.50
2023-05-11T13:55:42.853Z,5.75
2023-05-11T13:58:30.694Z,6.38
2023-05-11T14:01:17.860Z,7.55
2023-05-11T14:04:15.358Z,6.43
2023-05-11T14:07:02.703Z,6.82
2023-05-11T14:09:53.974Z,7.80
2023-05-11T14:12:43.632Z,7.70
2023-05-11T14:15:38.277Z,6.75
2023-05-11T14:18:26.203Z,5.55
2023-05-11T14:21:18.280Z,5.35
2023-05-11T14:27:00.036Z,6.20
2023-05-11T14:29:51.181Z,7.10
2023-05-11T14:32:38.647Z,7.00
2023-05-11T14:35:25.987Z,6.05
2023-05-11T14:38:13.314Z,5.10
2023-05-11T14:41:02.190Z,5.72
2023-05-11T14:43:52.392Z,5.35
2023-05-11T14:46:41.255Z,5.93
2023-05-11T14:49:28.833Z,5.88
2023-05-11T14:52:16.840Z,4.78
2023-05-11T14:55:04.245Z,4.55
2023-05-11T14:57:52.650Z,4.72
2023-05-11T15:00:40.419Z,3.88
2023-05-11T15:03:38.908Z,3.78
2023-05-11T15:06:26.398Z,4.28
2023-05-11T15:09:16.716Z,3.92
2023-05-11T15:12:04.531Z,3.08
2023-05-11T15:14:51.886Z,3.22
2023-05-11T15:17:39.207Z,3.55
2023-05-11T15:20:53.664Z,4.28
2023-05-11T15:23:41.051Z,3.60
2023-05-11T15:26:29.308Z,3.67
2023-05-11T15:29:17.143Z,3.75
2023-05-11T15:32:05.067Z,4.10
2023-05-11T15:34:59.309Z,3.10
2023-05-11T15:38:15.577Z,3.72
2023-05-11T15:41:04.034Z,3.40
2023-05-11T15:43:52.228Z,3.28
2023-05-11T15:46:41.870Z,4.72
2023-05-11T15:49:33.073Z,3.15
2023-05-11T15:52:23.917Z,3.45
2023-05-11T15:55:24.664Z,3.65
2023-05-11T15:58:18.229Z,3.17
2023-05-11T16:01:24.624Z,3.80
2023-05-11T16:04:14.618Z,3.05
2023-05-11T16:07:02.041Z,4.30
2023-05-11T16:09:50.248Z,3.13
2023-05-11T16:12:58.809Z,3.42
2023-05-11T16:15:51.104Z,4.43
2023-05-11T16:18:41.806Z,4.07
2023-05-11T16:21:45.269Z,4.90
2023-05-11T16:25:05.943Z,5.15
2023-05-11T16:28:11.692Z,7.45
2023-05-11T16:31:15.496Z,6.20
2023-05-11T16:34:31.964Z,7.75
2023-05-11T16:37:27.210Z,7.32
2023-05-11T16:40:25.013Z,6.75
2023-05-11T16:43:13.916Z,7.20
2023-05-11T16:46:13.486Z,5.72
2023-05-11T16:49:03.855Z,6.43
2023-05-11T16:51:52.613Z,6.28
2023-05-11T16:55:00.404Z,6.20
2023-05-11T16:57:57.606Z,8.20
2023-05-11T17:01:19.460Z,7.18
2023-05-11T17:04:12.174Z,7.75
2023-05-11T17:07:02.641Z,12.23
2023-05-11T17:09:58.101Z,8.73
2023-05-11T17:12:52.668Z,9.60
2023-05-11T17:15:48.123Z,11.40
2023-05-11T17:18:37.226Z,9.05
2023-05-11T17:21:41.797Z,8.27
2023-05-11T17:24:37.289Z,9.63
2023-05-11T17:27:24.635Z,12.30
2023-05-11T17:30:12.628Z,9.10
2023-05-11T17:33:01.578Z,11.23
2023-05-11T17:36:20.081Z,10.27
2023-05-11T17:39:31.215Z,11.43
2023-05-11T17:42:32.977Z,12.73
2023-05-11T17:45:38.438Z,13.30
2023-05-11T17:48:48.742Z,14.30
2023-05-11T17:51:38.051Z,11.73
2023-05-11T17:54:42.387Z,11.68
2023-05-11T17:57:30.301Z,13.43
2023-05-11T18:00:18.821Z,10.77
2023-05-11T18:03:06.592Z,12.88
2023-05-11T18:05:54.346Z,12.93
2023-05-11T18:08:48.773Z,11.77
2023-05-11T18:11:36.193Z,12.02
2023-05-11T18:14:23.969Z,10.02
2023-05-11T18:17:13.290Z,11.98
2023-05-11T18:20:24.764Z,9.52
2023-05-11T18:23:13.228Z,9.65
2023-05-11T18:26:02.388Z,11.20
2023-05-11T18:28:49.657Z,11.35
2023-05-11T18:31:37.549Z,12.48
2023-05-11T18:34:25.263Z,12.68
2023-05-11T18:37:12.985Z,12.70
2023-05-11T18:40:03.228Z,12.68
2023-05-11T18:42:55.979Z,13.10
2023-05-11T18:45:46.952Z,14.07
2023-05-11T18:48:34.597Z,15.65
2023-05-11T18:51:29.398Z,14.32
2023-05-11T18:54:16.783Z,14.00
2023-05-11T18:57:13.219Z,14.30
2023-05-11T19:00:17.248Z,13.73
2023-05-11T19:03:05.204Z,13.90
2023-05-11T19:05:53.608Z,13.63
2023-05-11T19:08:41.334Z,18.00
2023-05-11T19:11:28.579Z,11.80
2023-05-11T19:14:16.256Z,10.80
2023-05-11T19:17:06.502Z,9.85
2023-05-11T19:19:54.154Z,9.88
2023-05-11T19:22:41.661Z,9.63
2023-05-11T19:25:29.139Z,9.95
2023-05-11T19:28:17.583Z,8.23
2023-05-11T19:31:09.237Z,10.88
2023-05-11T19:33:58.597Z,11.82
2023-05-11T19:36:46.114Z,9.77
2023-05-11T19:39:38.655Z,9.75
2023-05-11T19:42:39.489Z,9.18
2023-05-11T19:45:31.840Z,10.27
2023-05-11T19:48:19.515Z,7.10
2023-05-11T19:51:11.900Z,8.95
2023-05-11T19:53:59.480Z,5.82
2023-05-11T19:56:46.865Z,5.80
2023-05-11T19:59:37.375Z,5.25
2023-05-11T20:02:25.579Z,11.27
2023-05-11T20:05:13.508Z,6.00
2023-05-11T20:08:11.080Z,6.38
2023-05-11T20:10:58.677Z,7.72
2023-05-11T20:13:56.237Z,7.25
2023-05-11T20:17:05.594Z,6.35
2023-05-11T20:20:00.250Z,6.45
2023-05-11T20:22:47.384Z,6.20
2023-05-11T20:25:38.389Z,7.60
2023-05-11T20:28:27.427Z,8.40
2023-05-11T20:31:20.275Z,10.32
2023-05-11T20:34:12.971Z,7.45
2023-05-11T20:37:00.951Z,8.60
2023-05-11T20:39:48.265Z,7.85
2023-05-11T20:42:40.008Z,7.82
2023-05-11T20:45:46.594Z,6.85
2023-05-11T20:48:40.488Z,7.20
2023-05-11T20:51:30.250Z,7.50
2023-05-11T20:54:22.918Z,7.35
2023-05-11T20:57:24.080Z,7.47
2023-05-11T21:00:16.464Z,8.55
2023-05-11T21:06:40.130Z,8.50
2023-05-11T21:09:57.459Z,7.32
2023-05-11T21:13:04.758Z,7.63
2023-05-11T21:15:58.507Z,8.48
2023-05-11T21:19:10.434Z,8.32
2023-05-11T21:22:00.198Z,9.45
2023-05-11T21:24:48.014Z,8.50
2023-05-11T21:27:36.609Z,9.32
2023-05-11T21:30:24.248Z,10.25
2023-05-11T21:33:13.398Z,8.63
2023-05-11T21:36:00.802Z,8.15
2023-05-11T21:38:51.388Z,8.65
2023-05-11T21:41:48.304Z,7.38
2023-05-11T21:44:51.027Z,7.90
2023-05-11T21:47:38.319Z,7.72
2023-05-11T21:50:27.617Z,7.28
2023-05-11T21:53:15.347Z,7.65
2023-05-11T21:56:10.012Z,6.25
2023-05-11T21:58:57.361Z,7.43
2023-05-11T22:01:44.835Z,9.15
2023-05-11T22:04:37.290Z,7.30
2023-05-11T22:10:13.091Z,6.57
2023-05-11T22:13:00.610Z,7.53
2023-05-11T22:15:48.539Z,6.38
2023-05-11T22:18:48.343Z,7.13
2023-05-11T22:21:35.594Z,5.28
2023-05-11T22:24:27.576Z,6.55
2023-05-11T22:27:16.128Z,6.80
2023-05-11T22:30:04.413Z,8.65
2023-05-11T22:32:56.459Z,7.45
2023-05-11T22:35:55.507Z,6.45
2023-05-11T22:38:43.136Z,6.88
2023-05-11T22:41:31.901Z,7.70
2023-05-11T22:44:21.780Z,6.88
2023-05-11T22:47:16.869Z,6.80
2023-05-11T22:50:08.424Z,8.48
2023-05-11T22:52:56.737Z,7.03
2023-05-11T22:55:44.339Z,8.13
2023-05-11T22:58:33.288Z,6.30
2023-05-11T23:01:20.904Z,7.53
2023-05-11T23:04:12.404Z,7.53
2023-05-11T23:07:13.195Z,7.10
2023-05-11T23:10:00.776Z,8.88
2023-05-11T23:12:48.104Z,7.10
2023-05-11T23:15:38.121Z,6.93
2023-05-11T23:18:26.307Z,7.63
2023-05-11T23:21:13.930Z,9.35
2023-05-11T23:24:01.266Z,9.13
2023-05-11T23:26:48.638Z,7.55
2023-05-11T23:29:36.033Z,6.07
2023-05-11T23:32:24.976Z,5.93
2023-05-11T23:35:13.262Z,6.43
2023-05-11T23:38:01.171Z,7.80
2023-05-11T23:40:48.863Z,6.13
2023-05-11T23:43:37.478Z,6.20
2023-05-11T23:46:25.418Z,5.88
2023-05-11T23:49:14.169Z,6.15
2023-05-11T23:52:03.788Z,5.95
2023-05-11T23:54:52.593Z,8.70
2023-05-11T23:57:39.984Z,6.43
